Time;durP1;ratioP1;P1;durP2;ratioP2;P2;SDS_P1;SDS_P2;PMS_P1;PMS_P2;Temp;Humidity;BMP_temperature;BMP_pressure;BME280_temperature;BME280_humidity;BME280_pressure;Samples;Min_cycle;Max_cycle;Signal;HPM_P1;HPM_P2
2021/06/22 00:00:36;;;;;;;5.47;2.35;;;14.90;79.90;;;;;;5035980;28;20029;-82
2021/06/22 00:03:03;;;;;;;5.25;2.50;;;14.90;80.10;;;;;;5029400;28;20029;-85
2021/06/22 00:05:31;;;;;;;7.47;2.80;;;14.90;80.30;;;;;;5016796;28;20470;-81
2021/06/22 00:07:57;;;;;;;5.75;2.60;;;14.90;80.20;;;;;;5017423;28;20029;-82
2021/06/22 00:10:26;;;;;;;6.55;2.83;;;14.90;80.00;;;;;;5000679;28;20199;-84
2021/06/22 00:12:53;;;;;;;4.57;2.28;;;14.90;79.90;;;;;;5015991;28;20036;-85
2021/06/22 00:15:21;;;;;;;3.55;2.33;;;14.90;79.80;;;;;;5015754;28;20029;-86
2021/06/22 00:17:47;;;;;;;6.40;2.35;;;14.90;80.00;;;;;;5015760;28;20048;-86
2021/06/22 00:20:14;;;;;;;4.20;1.85;;;14.90;79.40;;;;;;5015043;28;20053;-86
2021/06/22 00:22:41;;;;;;;5.43;1.98;;;14.80;79.20;;;;;;5021849;28;20579;-85
2021/06/22 00:25:09;;;;;;;5.15;2.17;;;14.80;79.00;;;;;;5019284;28;20036;-84
2021/06/22 00:27:35;;;;;;;5.13;1.90;;;14.80;79.10;;;;;;5036322;28;20040;-84
2021/06/22 00:30:02;;;;;;;3.58;1.63;;;14.80;78.80;;;;;;5036153;28;20037;-83
2021/06/22 00:32:27;;;;;;;3.28;1.50;;;14.80;78.40;;;;;;5019227;28;20025;-86
2021/06/22 00:34:53;;;;;;;2.72;1.45;;;14.70;78.50;;;;;;5035991;28;20037;-82
2021/06/22 00:37:19;;;;;;;4.65;1.67;;;14.70;78.70;;;;;;5015380;28;20474;-86
2021/06/22 00:39:45;;;;;;;5.45;2.00;;;14.70;78.90;;;;;;5032090;28;20101;-84
2021/06/22 00:42:12;;;;;;;3.67;1.40;;;14.60;78.70;;;;;;4999246;28;20072;-83
2021/06/22 00:44:49;;;;;;;6.57;2.40;;;14.60;79.00;;;;;;5000512;28;20033;-86
2021/06/22 00:47:16;;;;;;;5.90;2.20;;;14.60;79.30;;;;;;5018534;28;20037;-86
2021/06/22 00:49:43;;;;;;;3.50;2.08;;;14.50;79.60;;;;;;5016627;28;20026;-85
2021/06/22 00:52:10;;;;;;;7.05;2.80;;;14.50;79.90;;;;;;4999509;28;20040;-86
2021/06/22 00:54:36;;;;;;;7.95;2.80;;;14.40;80.30;;;;;;5001699;28;20034;-84
2021/06/22 00:57:05;;;;;;;10.10;3.20;;;14.50;80.70;;;;;;5016462;28;20036;-85
2021/06/22 00:59:32;;;;;;;7.90;3.13;;;14.50;81.00;;;;;;5014084;28;20021;-86
2021/06/22 01:01:57;;;;;;;5.45;2.97;;;14.50;81.20;;;;;;5012858;28;20021;-83
2021/06/22 01:04:23;;;;;;;5.25;3.60;;;14.40;81.40;;;;;;5014822;28;20045;-86
2021/06/22 01:06:49;;;;;;;6.65;3.28;;;14.50;81.60;;;;;;5015340;28;20030;-87
2021/06/22 01:09:14;;;;;;;4.07;2.63;;;14.50;81.60;;;;;;4998571;28;20076;-87
2021/06/22 01:11:41;;;;;;;6.90;2.72;;;14.60;81.50;;;;;;5031707;28;20033;-86
2021/06/22 01:14:06;;;;;;;6.75;3.15;;;14.70;81.40;;;;;;5031698;28;20041;-87
2021/06/22 01:16:32;;;;;;;7.88;3.35;;;14.80;81.40;;;;;;5014647;28;20207;-87
2021/06/22 01:18:59;;;;;;;9.88;3.50;;;14.80;81.30;;;;;;5014712;28;20032;-86
2021/06/22 01:33:24;;;;;;;9.35;3.60;;;14.40;83.00;;;;;;5264074;23;20055;-76
2021/06/22 01:35:50;;;;;;;8.20;3.83;;;14.30;83.40;;;;;;4971882;28;20466;-77
2021/06/22 01:38:15;;;;;;;9.57;4.05;;;14.20;83.70;;;;;;4973307;28;20133;-76
2021/06/22 01:40:50;;;;;;;7.63;3.40;;;14.20;84.30;;;;;;4972119;28;20043;-77
2021/06/22 01:43:15;;;;;;;7.35;3.42;;;14.20;83.90;;;;;;4955443;28;20037;-83
2021/06/22 01:45:41;;;;;;;9.50;3.90;;;14.20;84.00;;;;;;4971924;28;20031;-77
2021/06/22 01:48:07;;;;;;;7.97;4.13;;;14.10;84.20;;;;;;4971775;28;20038;-76
2021/06/22 01:50:33;;;;;;;12.85;3.60;;;14.10;84.40;;;;;;4971385;28;20031;-80
2021/06/22 01:52:59;;;;;;;8.50;3.85;;;14.00;84.60;;;;;;4938583;28;20054;-77
2021/06/22 01:55:41;;;;;;;8.55;3.85;;;14.00;84.80;;;;;;4939029;28;20031;-77
2021/06/22 01:58:13;;;;;;;7.35;3.70;;;14.00;85.00;;;;;;4957417;28;20031;-77
2021/06/22 02:00:41;;;;;;;6.40;3.72;;;14.10;84.80;;;;;;4953716;28;20561;-78
2021/06/22 02:03:12;;;;;;;9.07;3.88;;;14.20;84.60;;;;;;4972146;28;20043;-77
2021/06/22 02:05:38;;;;;;;9.95;4.05;;;14.20;84.60;;;;;;4971546;28;20054;-81
2021/06/22 02:08:03;;;;;;;10.65;4.13;;;14.30;84.50;;;;;;4938706;28;20129;-77
2021/06/22 02:10:29;;;;;;;11.45;3.97;;;14.20;84.60;;;;;;4954669;28;20035;-77
2021/06/22 02:12:54;;;;;;;11.52;3.70;;;14.30;84.10;;;;;;4937683;28;20046;-76
2021/06/22 02:15:20;;;;;;;15.23;4.25;;;14.30;84.00;;;;;;4955061;28;20037;-77
2021/06/22 02:17:46;;;;;;;10.30;3.72;;;14.30;83.50;;;;;;4954028;28;20038;-77
2021/06/22 02:20:12;;;;;;;10.05;3.72;;;14.30;83.30;;;;;;4971763;28;20055;-74
2021/06/22 02:22:38;;;;;;;11.80;3.60;;;14.20;83.00;;;;;;4938294;28;20039;-82
2021/06/22 02:25:07;;;;;;;12.68;3.40;;;14.10;83.00;;;;;;4954050;28;20031;-76
2021/06/22 02:27:34;;;;;;;11.15;4.03;;;14.00;83.30;;;;;;4971866;28;20030;-77
2021/06/22 02:30:00;;;;;;;10.77;3.42;;;13.90;83.40;;;;;;4972161;28;20046;-84
2021/06/22 02:32:26;;;;;;;9.75;3.45;;;13.90;83.50;;;;;;4957437;28;20059;-86
2021/06/22 02:34:52;;;;;;;7.65;3.60;;;13.80;83.80;;;;;;4957682;28;20050;-84
2021/06/22 02:37:18;;;;;;;7.30;4.05;;;13.80;84.00;;;;;;4958010;28;20035;-86
2021/06/22 02:39:45;;;;;;;8.10;3.55;;;13.70;84.20;;;;;;4942999;28;20135;-85
2021/06/22 02:42:11;;;;;;;7.40;3.47;;;13.80;84.40;;;;;;4942918;28;20474;-86
2021/06/22 02:44:37;;;;;;;9.43;3.65;;;13.90;84.20;;;;;;4974767;28;20061;-86
2021/06/22 02:47:03;;;;;;;10.23;4.22;;;13.90;83.50;;;;;;4957516;28;20053;-85
2021/06/22 02:49:29;;;;;;;15.07;4.18;;;13.90;83.30;;;;;;4958946;28;20027;-82
2021/06/22 02:51:55;;;;;;;9.10;4.20;;;13.80;83.40;;;;;;4958838;28;20031;-82
2021/06/22 02:54:20;;;;;;;9.07;3.88;;;13.80;83.70;;;;;;4974757;28;20054;-83
2021/06/22 02:56:46;;;;;;;12.27;4.30;;;13.80;83.90;;;;;;4958219;28;20463;-86
2021/06/22 02:59:12;;;;;;;7.18;3.22;;;13.80;84.10;;;;;;4957888;28;20043;-85
2021/06/22 03:01:37;;;;;;;10.57;3.80;;;13.70;84.20;;;;;;4942189;28;20102;-86
2021/06/22 03:04:03;;;;;;;8.35;3.97;;;13.80;84.20;;;;;;4944779;28;20383;-84
2021/06/22 03:06:29;;;;;;;9.93;3.75;;;13.70;84.10;;;;;;4961101;28;20038;-84
2021/06/22 03:08:55;;;;;;;8.77;3.40;;;13.60;84.40;;;;;;4945827;28;20034;-86
2021/06/22 03:11:20;;;;;;;9.70;3.50;;;13.70;84.40;;;;;;4960996;28;20038;-87
2021/06/22 03:13:46;;;;;;;11.07;3.65;;;13.70;84.30;;;;;;4961338;28;20043;-84
2021/06/22 03:16:12;;;;;;;9.90;3.50;;;13.70;84.30;;;;;;4945067;28;20065;-86
2021/06/22 03:18:37;;;;;;;9.60;3.50;;;13.70;83.90;;;;;;4945664;28;20030;-84
2021/06/22 03:21:03;;;;;;;8.85;3.28;;;13.70;83.80;;;;;;4962518;28;20031;-83
2021/06/22 03:23:29;;;;;;;8.77;3.78;;;13.60;84.20;;;;;;4945286;28;20031;-86
2021/06/22 03:25:55;;;;;;;8.80;3.53;;;13.50;84.30;;;;;;4963013;28;20062;-83
2021/06/22 03:28:20;;;;;;;14.13;4.68;;;13.60;84.50;;;;;;4946554;28;20030;-83
2021/06/22 03:30:47;;;;;;;7.90;4.75;;;13.60;84.80;;;;;;4962743;28;20382;-83
2021/06/22 03:33:12;;;;;;;11.43;5.00;;;13.60;85.10;;;;;;4930125;28;20101;-85
2021/06/22 03:35:38;;;;;;;10.80;4.65;;;13.50;85.50;;;;;;4962162;28;20027;-81
2021/06/22 03:38:04;;;;;;;8.77;4.37;;;13.50;85.70;;;;;;4932168;28;20056;-85
2021/06/22 03:40:30;;;;;;;9.20;4.47;;;13.50;86.00;;;;;;4960291;28;20035;-83
2021/06/22 03:42:56;;;;;;;10.02;5.38;;;13.60;86.00;;;;;;4978428;28;20038;-89
2021/06/22 03:45:23;;;;;;;15.35;6.20;;;13.60;85.90;;;;;;4960970;28;20034;-87
2021/06/22 03:47:50;;;;;;;17.38;5.40;;;13.70;85.90;;;;;;4944486;28;20034;-83
2021/06/22 03:50:15;;;;;;;15.82;6.57;;;13.70;85.70;;;;;;4978225;28;20046;-83
2021/06/22 03:52:41;;;;;;;8.77;5.47;;;13.70;85.80;;;;;;4977610;28;20085;-85
2021/06/22 03:55:26;;;;;;;10.95;5.30;;;13.60;86.10;;;;;;4961381;28;20026;-86
2021/06/22 03:57:53;;;;;;;12.48;6.30;;;13.70;86.10;;;;;;4946730;28;20058;-86
2021/06/22 04:00:20;;;;;;;10.98;6.10;;;13.70;86.00;;;;;;4976943;28;20121;-86
2021/06/22 04:02:46;;;;;;;10.80;5.63;;;13.70;86.20;;;;;;4960589;28;20034;-88
2021/06/22 04:05:12;;;;;;;16.73;6.78;;;13.70;86.40;;;;;;4960627;28;20027;-80
2021/06/22 04:07:38;;;;;;;17.55;6.20;;;13.80;86.30;;;;;;4960959;28;20185;-86
2021/06/22 04:10:04;;;;;;;14.20;6.63;;;13.80;86.30;;;;;;4944476;28;20037;-86
2021/06/22 04:12:30;;;;;;;17.55;7.72;;;13.80;86.20;;;;;;4961381;28;20094;-85
2021/06/22 04:14:55;;;;;;;9.45;5.20;;;13.70;86.40;;;;;;4944290;28;20074;-87
2021/06/22 04:17:21;;;;;;;15.20;5.80;;;13.70;86.70;;;;;;4929696;28;20476;-86
2021/06/22 04:19:46;;;;;;;12.52;6.20;;;13.80;86.50;;;;;;4961661;28;20455;-83
2021/06/22 04:22:12;;;;;;;13.25;6.38;;;13.80;86.30;;;;;;4961483;28;20023;-85
2021/06/22 04:24:38;;;;;;;12.25;6.68;;;13.70;86.40;;;;;;4947876;28;20031;-86
2021/06/22 04:27:04;;;;;;;22.67;6.60;;;13.70;86.40;;;;;;4932787;28;20042;-83
2021/06/22 04:29:30;;;;;;;12.50;6.35;;;13.70;86.40;;;;;;4949733;28;20062;-87
2021/06/22 04:31:55;;;;;;;11.50;6.18;;;13.70;86.50;;;;;;4961805;28;20054;-87
2021/06/22 04:34:22;;;;;;;17.02;6.70;;;13.80;86.50;;;;;;4978022;28;20047;-84
2021/06/22 04:36:48;;;;;;;13.32;6.13;;;13.80;86.30;;;;;;4945781;28;20058;-86
2021/06/22 04:39:14;;;;;;;13.45;6.53;;;13.80;86.30;;;;;;4961176;28;20058;-87
2021/06/22 04:41:40;;;;;;;11.15;5.97;;;13.70;86.30;;;;;;4976868;28;20061;-86
2021/06/22 04:44:06;;;;;;;13.35;6.68;;;13.70;86.20;;;;;;4959761;28;20034;-84
2021/06/22 04:46:32;;;;;;;12.63;6.72;;;13.70;86.30;;;;;;4943539;28;20027;-83
2021/06/22 04:48:57;;;;;;;17.88;6.15;;;13.70;86.20;;;;;;4959638;28;20149;-87
2021/06/22 04:51:23;;;;;;;15.07;7.22;;;13.70;86.20;;;;;;4959666;28;20023;-81
2021/06/22 04:53:49;;;;;;;12.02;6.30;;;13.80;85.90;;;;;;4976511;28;20042;-83
2021/06/22 04:56:15;;;;;;;22.45;8.23;;;13.90;85.80;;;;;;4959638;28;20041;-85
2021/06/22 04:58:41;;;;;;;12.60;6.60;;;13.80;85.90;;;;;;4976534;28;20518;-84
2021/06/22 05:01:07;;;;;;;16.70;6.07;;;13.90;85.70;;;;;;4927336;28;20031;-82
2021/06/22 05:03:34;;;;;;;13.07;5.72;;;13.90;85.50;;;;;;4959381;28;20049;-85
2021/06/22 05:06:00;;;;;;;10.52;5.47;;;13.90;85.30;;;;;;4976197;28;20475;-87
2021/06/22 05:08:26;;;;;;;15.25;6.35;;;14.00;85.30;;;;;;4942929;28;20023;-85
2021/06/22 05:10:53;;;;;;;13.43;6.32;;;14.00;85.30;;;;;;4942969;28;20031;-87
2021/06/22 05:13:19;;;;;;;11.93;5.00;;;14.00;85.20;;;;;;4958810;28;20157;-84
2021/06/22 05:15:45;;;;;;;10.95;4.47;;;14.10;85.10;;;;;;4928649;28;20466;-85
2021/06/22 05:18:10;;;;;;;12.38;5.53;;;14.30;84.90;;;;;;4959193;28;20035;-88
2021/06/22 05:20:36;;;;;;;10.18;4.65;;;14.30;84.30;;;;;;4943919;28;20129;-86
2021/06/22 05:23:02;;;;;;;12.50;5.25;;;14.50;84.20;;;;;;4959468;28;20406;-87
2021/06/22 05:25:28;;;;;;;13.88;5.47;;;14.60;83.50;;;;;;4957979;28;20110;-80
2021/06/22 05:27:54;;;;;;;13.85;5.10;;;14.60;83.00;;;;;;4928980;28;20485;-83
2021/06/22 05:30:19;;;;;;;12.85;5.13;;;14.80;82.80;;;;;;4927133;28;20050;-83
2021/06/22 05:32:45;;;;;;;12.38;5.10;;;14.80;82.20;;;;;;4927331;28;20134;-86
2021/06/22 05:35:12;;;;;;;12.80;4.95;;;14.70;82.30;;;;;;4959958;28;20074;-86
2021/06/22 05:37:39;;;;;;;11.70;4.93;;;14.80;82.30;;;;;;4959483;28;20029;-85
2021/06/22 05:40:07;;;;;;;10.88;4.80;;;14.90;81.50;;;;;;4960916;28;20126;-85
2021/06/22 05:42:33;;;;;;;11.32;5.30;;;14.90;81.50;;;;;;4943898;28;20026;-85
2021/06/22 05:44:59;;;;;;;9.13;4.05;;;14.90;81.60;;;;;;4943155;28;20414;-86
2021/06/22 05:47:25;;;;;;;12.65;4.68;;;15.10;81.60;;;;;;4929313;28;20430;-85
2021/06/22 05:49:51;;;;;;;13.02;4.78;;;15.10;80.90;;;;;;4932503;28;20031;-88
2021/06/22 05:52:16;;;;;;;12.15;5.10;;;15.20;81.20;;;;;;4976182;28;20105;-85
2021/06/22 05:54:42;;;;;;;8.25;4.28;;;15.20;80.80;;;;;;4958853;28;20034;-85
2021/06/22 05:57:08;;;;;;;10.43;5.25;;;15.30;80.80;;;;;;4926697;28;20398;-86
2021/06/22 05:59:34;;;;;;;10.00;4.28;;;15.40;80.40;;;;;;4943558;28;20038;-88
2021/06/22 06:01:59;;;;;;;11.68;4.93;;;15.40;80.60;;;;;;4975452;28;20537;-84
2021/06/22 06:04:28;;;;;;;10.15;4.82;;;15.60;79.80;;;;;;4975520;28;20035;-88
2021/06/22 06:06:55;;;;;;;13.05;4.93;;;15.70;79.80;;;;;;4958379;28;20030;-87
2021/06/22 06:09:21;;;;;;;14.32;4.70;;;16.00;79.00;;;;;;4943196;28;20054;-87
2021/06/22 06:11:46;;;;;;;10.32;4.43;;;16.30;78.70;;;;;;4958839;28;20129;-89
2021/06/22 06:14:12;;;;;;;7.22;3.92;;;16.40;77.40;;;;;;4942606;28;20058;-86
2021/06/22 06:16:38;;;;;;;9.82;4.47;;;16.70;76.70;;;;;;4942887;28;20477;-90
2021/06/22 06:19:04;;;;;;;8.23;4.95;;;17.00;76.00;;;;;;4958901;28;20065;-89
2021/06/22 06:21:30;;;;;;;11.90;4.80;;;17.10;75.40;;;;;;4975722;28;20090;-85
2021/06/22 06:23:57;;;;;;;11.75;3.90;;;17.30;74.80;;;;;;4943106;28;20077;-85
2021/06/22 06:26:25;;;;;;;7.68;3.78;;;17.50;73.70;;;;;;4942684;28;20101;-89
2021/06/22 06:28:53;;;;;;;9.30;3.38;;;18.20;71.70;;;;;;4958717;28;20046;-87
2021/06/22 06:31:22;;;;;;;6.88;3.22;;;19.20;69.50;;;;;;4942322;28;20085;-88
2021/06/22 06:33:48;;;;;;;9.65;3.35;;;18.80;68.40;;;;;;4941836;28;20110;-88
2021/06/22 06:36:16;;;;;;;7.15;3.42;;;18.40;68.50;;;;;;4942886;28;20031;-88
2021/06/22 06:38:41;;;;;;;6.80;3.05;;;17.90;70.00;;;;;;4946484;28;20074;-89
2021/06/22 06:41:07;;;;;;;7.28;3.03;;;17.90;71.20;;;;;;4962179;28;20082;-85
2021/06/22 06:43:33;;;;;;;7.45;2.90;;;18.00;70.30;;;;;;4944916;28;20061;-87
2021/06/22 06:45:58;;;;;;;6.05;2.28;;;17.60;69.40;;;;;;4945865;28;20034;-84
2021/06/22 06:48:25;;;;;;;7.10;2.30;;;17.60;69.30;;;;;;4961042;28;20077;-82
2021/06/22 06:50:52;;;;;;;7.43;2.00;;;17.80;69.00;;;;;;4961418;28;20027;-86
2021/06/22 06:53:18;;;;;;;5.38;1.98;;;18.30;68.10;;;;;;4979018;28;20031;-88
2021/06/22 06:55:46;;;;;;;6.05;1.83;;;18.70;66.30;;;;;;4930667;28;20402;-82
2021/06/22 06:58:12;;;;;;;6.25;2.25;;;18.90;65.20;;;;;;4962389;28;20035;-87
2021/06/22 07:00:39;;;;;;;7.40;2.00;;;19.00;65.70;;;;;;4962112;28;20352;-89
2021/06/22 07:03:05;;;;;;;6.53;1.75;;;19.60;64.30;;;;;;4945909;28;20086;-83
2021/06/22 07:05:32;;;;;;;5.65;1.50;;;20.90;61.30;;;;;;4946132;28;20035;-83
2021/06/22 07:07:59;;;;;;;6.57;1.80;;;21.00;58.20;;;;;;4962215;28;20023;-87
2021/06/22 07:10:26;;;;;;;8.30;2.03;;;20.70;58.90;;;;;;4980415;28;20054;-86
2021/06/22 07:12:53;;;;;;;8.32;1.83;;;20.10;60.90;;;;;;4964167;28;20053;-89
2021/06/22 07:15:19;;;;;;;6.05;1.83;;;19.50;62.00;;;;;;4933511;28;20038;-88
2021/06/22 07:17:44;;;;;;;6.10;1.80;;;19.30;62.70;;;;;;4983466;28;20027;-85
2021/06/22 07:20:11;;;;;;;9.43;1.98;;;18.90;62.90;;;;;;4965359;28;20066;-87
2021/06/22 07:22:36;;;;;;;6.30;1.80;;;18.60;63.80;;;;;;4963376;28;20034;-87
2021/06/22 07:25:03;;;;;;;5.18;1.48;;;18.20;64.50;;;;;;4962870;28;20509;-89
2021/06/22 07:27:29;;;;;;;5.32;1.73;;;17.90;65.60;;;;;;4961546;28;20042;-87
2021/06/22 07:29:55;;;;;;;10.18;1.80;;;17.90;66.80;;;;;;4929670;28;20105;-88
2021/06/22 07:32:21;;;;;;;5.18;1.42;;;17.80;66.90;;;;;;4945297;28;20041;-89
2021/06/22 07:34:47;;;;;;;8.70;1.73;;;17.60;66.10;;;;;;4929188;28;20042;-87
2021/06/22 07:37:13;;;;;;;8.05;1.60;;;17.30;66.70;;;;;;4945668;28;20117;-87
2021/06/22 07:39:38;;;;;;;7.13;1.95;;;17.20;67.90;;;;;;4979237;28;20429;-89
2021/06/22 07:42:04;;;;;;;9.45;2.28;;;17.10;68.70;;;;;;4962167;28;20031;-89
2021/06/22 07:44:30;;;;;;;6.55;1.55;;;16.90;68.40;;;;;;4945870;28;20034;-90
2021/06/22 07:46:55;;;;;;;4.88;1.55;;;16.80;68.70;;;;;;4947205;28;20034;-88
2021/06/22 07:49:21;;;;;;;4.70;1.30;;;16.90;69.10;;;;;;4972861;28;20035;-93
2021/06/22 07:51:47;;;;;;;7.25;2.60;;;17.00;69.80;;;;;;4979480;28;20027;-88
2021/06/22 07:54:13;;;;;;;10.55;2.33;;;17.10;69.40;;;;;;4945808;28;20054;-90
2021/06/22 07:56:39;;;;;;;13.13;2.22;;;17.10;70.30;;;;;;4961707;28;20451;-85
2021/06/22 07:59:05;;;;;;;7.20;2.03;;;17.20;70.00;;;;;;4978938;28;20085;-92
2021/06/22 08:01:31;;;;;;;6.93;1.90;;;17.40;69.40;;;;;;4946269;28;20039;-92
2021/06/22 08:03:56;;;;;;;7.38;2.17;;;17.50;69.50;;;;;;4978958;28;20447;-87
2021/06/22 08:06:22;;;;;;;7.15;2.83;;;17.50;69.20;;;;;;4960610;28;20034;-89
2021/06/22 08:08:48;;;;;;;5.90;2.30;;;17.50;69.00;;;;;;4944991;28;20041;-90
2021/06/22 08:11:13;;;;;;;5.80;2.10;;;17.30;69.60;;;;;;4944948;28;20027;-89
2021/06/22 08:13:39;;;;;;;6.25;2.20;;;17.30;69.30;;;;;;4944818;28;20197;-88
2021/06/22 08:16:05;;;;;;;6.57;2.30;;;17.30;69.00;;;;;;4978351;28;20026;-91
2021/06/22 08:18:33;;;;;;;9.10;2.13;;;17.20;69.30;;;;;;4961198;28;20062;-87
2021/06/22 08:20:59;;;;;;;8.32;2.20;;;17.30;69.30;;;;;;4944998;28;20526;-90
2021/06/22 08:23:25;;;;;;;8.15;2.40;;;17.20;69.70;;;;;;4978677;28;20031;-88
2021/06/22 08:25:53;;;;;;;5.05;2.28;;;17.30;69.90;;;;;;4960884;28;20027;-88
2021/06/22 08:28:18;;;;;;;6.38;2.13;;;17.50;69.90;;;;;;4960825;28;20035;-89
2021/06/22 08:30:44;;;;;;;5.80;2.42;;;17.60;69.80;;;;;;4945189;28;20138;-86
2021/06/22 08:33:12;;;;;;;8.07;2.40;;;17.70;70.00;;;;;;4959540;28;20057;-89
2021/06/22 08:35:37;;;;;;;5.40;1.83;;;17.80;68.50;;;;;;4961084;28;20478;-91
2021/06/22 08:38:09;;;;;;;5.50;1.80;;;17.60;68.40;;;;;;4960927;28;20039;-89
2021/06/22 08:40:43;;;;;;;8.93;2.20;;;17.50;68.70;;;;;;4961671;28;20034;-83
2021/06/22 08:43:11;;;;;;;5.28;1.73;;;17.50;68.60;;;;;;4959231;28;20105;-85
2021/06/22 08:45:38;;;;;;;5.13;2.17;;;17.50;69.30;;;;;;4959087;28;20034;-86
2021/06/22 08:48:11;;;;;;;5.97;2.10;;;17.60;69.80;;;;;;4976516;28;20122;-84
2021/06/22 08:50:42;;;;;;;7.00;2.90;;;17.80;70.00;;;;;;4976820;28;20034;-86
2021/06/22 08:53:09;;;;;;;9.27;3.63;;;17.90;70.10;;;;;;4961527;28;20042;-85
2021/06/22 08:55:35;;;;;;;8.07;3.22;;;17.80;70.00;;;;;;4981620;28;20056;-84
2021/06/22 08:58:10;;;;;;;4.50;2.47;;;17.80;70.40;;;;;;4980068;28;20031;-85
2021/06/22 09:00:41;;;;;;;7.32;2.67;;;18.00;70.50;;;;;;4962087;28;20038;-86
2021/06/22 09:03:15;;;;;;;5.70;2.80;;;17.90;69.90;;;;;;4975455;28;20477;-85
2021/06/22 09:05:47;;;;;;;4.40;2.28;;;18.00;69.70;;;;;;4976157;28;20143;-85
2021/06/22 09:08:32;;;;;;;6.38;2.58;;;18.00;69.70;;;;;;4958811;28;20022;-86
2021/06/22 09:11:13;;;;;;;8.07;2.97;;;18.00;69.90;;;;;;4977109;28;20027;-83
2021/06/22 09:13:41;;;;;;;7.32;2.47;;;18.00;69.00;;;;;;4960291;28;20035;-85
2021/06/22 09:16:12;;;;;;;5.70;2.75;;;17.60;69.00;;;;;;4916170;29;20058;-88
2021/06/22 09:18:41;;;;;;;4.53;1.95;;;17.60;68.80;;;;;;4917234;29;20135;-87
2021/06/22 09:21:10;;;;;;;4.60;2.20;;;17.50;69.50;;;;;;4916319;29;20036;-86
2021/06/22 09:23:38;;;;;;;6.43;2.15;;;17.60;69.30;;;;;;4916561;29;20032;-86
2021/06/22 09:26:24;;;;;;;5.47;2.30;;;17.40;69.00;;;;;;4916324;29;20039;-86
2021/06/22 09:28:51;;;;;;;10.45;2.63;;;17.20;69.50;;;;;;4900532;29;20080;-87
2021/06/22 09:31:20;;;;;;;9.65;3.00;;;17.20;70.50;;;;;;4916021;29;20048;-85
2021/06/22 09:33:51;;;;;;;8.63;3.55;;;17.20;71.40;;;;;;4915662;29;20088;-86
2021/06/22 09:36:20;;;;;;;5.65;2.53;;;17.10;71.80;;;;;;4916783;29;20536;-86
2021/06/22 09:38:56;;;;;;;9.18;2.80;;;17.20;71.80;;;;;;4916028;29;20028;-87
2021/06/22 09:41:25;;;;;;;6.65;3.00;;;17.40;71.30;;;;;;4916120;29;20032;-83
2021/06/22 09:43:52;;;;;;;6.82;3.17;;;17.40;71.00;;;;;;4916267;29;20032;-85
2021/06/22 09:46:30;;;;;;;5.05;2.58;;;17.60;70.90;;;;;;4925811;28;20031;-86
2021/06/22 09:48:58;;;;;;;7.65;2.40;;;17.80;70.40;;;;;;4958590;28;20019;-86
2021/06/22 09:51:34;;;;;;;8.25;3.40;;;17.90;69.60;;;;;;4942604;28;20039;-86
2021/06/22 09:54:11;;;;;;;5.13;2.13;;;17.80;69.20;;;;;;4975370;28;20138;-85
2021/06/22 09:56:37;;;;;;;6.68;3.08;;;18.00;69.80;;;;;;4974042;28;20045;-86
2021/06/22 09:59:07;;;;;;;7.53;2.75;;;17.80;69.20;;;;;;4957902;28;20113;-84
2021/06/22 10:01:36;;;;;;;6.35;2.83;;;17.70;69.60;;;;;;4942510;28;20031;-85
2021/06/22 10:04:16;;;;;;;7.25;2.60;;;17.70;69.80;;;;;;4975656;28;20046;-87
2021/06/22 10:06:48;;;;;;;7.93;2.70;;;17.90;69.80;;;;;;4975029;28;20030;-85
2021/06/22 10:09:24;;;;;;;6.35;2.67;;;18.10;69.00;;;;;;4957474;28;20027;-84
2021/06/22 10:12:07;;;;;;;6.05;2.53;;;18.00;68.30;;;;;;4975203;28;20069;-84
2021/06/22 10:14:38;;;;;;;4.60;2.63;;;18.30;68.40;;;;;;4958082;28;20035;-86
2021/06/22 10:17:07;;;;;;;7.13;3.25;;;18.60;67.10;;;;;;4957348;28;20034;-84
2021/06/22 10:19:34;;;;;;;8.38;3.30;;;18.80;66.20;;;;;;4975930;28;20081;-83
2021/06/22 10:22:02;;;;;;;9.68;3.47;;;18.90;66.00;;;;;;4942664;28;20026;-87
2021/06/22 10:24:29;;;;;;;6.35;3.63;;;19.10;66.30;;;;;;4975803;28;20031;-86
2021/06/22 10:26:57;;;;;;;7.07;2.92;;;19.70;65.50;;;;;;4957629;28;20051;-85
2021/06/22 10:29:24;;;;;;;6.22;3.25;;;20.20;64.50;;;;;;4957050;28;20015;-86
2021/06/22 10:31:52;;;;;;;6.07;3.80;;;20.00;63.70;;;;;;4957538;28;20027;-82
2021/06/22 10:34:19;;;;;;;7.88;3.22;;;19.80;63.40;;;;;;4957473;28;20046;-84
2021/06/22 10:37:06;;;;;;;7.40;4.28;;;19.20;64.10;;;;;;4957553;28;20023;-83
2021/06/22 10:39:50;;;;;;;6.70;4.28;;;18.90;64.90;;;;;;4958026;28;20034;-82
2021/06/22 10:42:16;;;;;;;9.52;5.20;;;18.80;65.20;;;;;;4975741;28;20062;-82
2021/06/22 10:44:53;;;;;;;7.70;4.10;;;18.80;64.60;;;;;;4974328;28;20098;-83
2021/06/22 10:47:27;;;;;;;7.28;4.00;;;18.70;65.40;;;;;;4942553;28;20153;-83
2021/06/22 10:50:11;;;;;;;9.20;5.40;;;18.90;65.20;;;;;;4974685;28;20034;-82
2021/06/22 10:52:44;;;;;;;9.05;4.68;;;18.90;64.70;;;;;;4958091;28;20455;-83
2021/06/22 10:55:17;;;;;;;;;;;19.00;64.80;;;;;;4959620;28;20039;-85
2021/06/22 10:58:08;;;;;;;7.20;4.30;;;19.20;64.70;;;;;;4977479;28;19906;-83
2021/06/22 11:00:49;;;;;;;9.50;5.32;;;19.30;64.20;;;;;;4975409;28;20022;-81
2021/06/22 11:03:28;;;;;;;10.20;5.40;;;19.50;63.40;;;;;;4957352;28;20086;-80
2021/06/22 11:06:03;;;;;;;7.22;6.00;;;19.30;62.80;;;;;;4974943;28;20027;-80
2021/06/22 11:08:38;;;;;;;8.75;5.10;;;19.20;63.60;;;;;;4958205;28;20058;-87
2021/06/22 11:11:06;;;;;;;7.57;4.72;;;19.20;64.10;;;;;;4941650;28;20059;-83
2021/06/22 11:13:57;;;;;;;8.88;4.78;;;19.60;64.00;;;;;;4957308;28;20038;-81
2021/06/22 11:16:26;;;;;;;7.30;3.90;;;19.70;62.30;;;;;;4974449;28;20027;-86
2021/06/22 11:18:54;;;;;;;6.93;3.80;;;19.70;62.60;;;;;;4957078;28;20054;-85
2021/06/22 11:21:31;;;;;;;7.55;5.30;;;19.90;63.00;;;;;;4957698;28;20152;-83
2021/06/22 11:24:14;;;;;;;12.20;5.90;;;20.40;61.60;;;;;;4958871;28;20035;-82
2021/06/22 11:26:49;;;;;;;8.07;5.72;;;20.40;61.10;;;;;;4978262;28;20039;-85
2021/06/22 11:29:22;;;;;;;10.10;6.55;;;20.40;61.40;;;;;;4960322;28;20042;-84
2021/06/22 11:31:51;;;;;;;8.07;5.63;;;20.30;60.80;;;;;;4960655;28;20023;-85
2021/06/22 11:34:21;;;;;;;10.07;7.28;;;20.30;61.20;;;;;;4959747;28;20059;-85
2021/06/22 11:36:48;;;;;;;7.60;6.47;;;20.10;61.10;;;;;;4978006;28;20027;-85
2021/06/22 11:39:22;;;;;;;9.35;6.53;;;20.20;61.90;;;;;;4960750;28;20492;-85
2021/06/22 11:42:06;;;;;;;7.07;6.15;;;20.20;60.90;;;;;;4960729;28;20101;-86
2021/06/22 11:44:35;;;;;;;8.18;6.00;;;20.10;61.40;;;;;;4978078;28;20093;-86
2021/06/22 11:47:02;;;;;;;12.48;7.10;;;20.10;61.50;;;;;;4945509;28;20093;-86
2021/06/22 11:49:58;;;;;;;8.43;6.22;;;19.70;61.90;;;;;;4960906;28;20109;-86
2021/06/22 11:52:39;;;;;;;8.18;6.57;;;19.40;62.50;;;;;;4969547;28;20046;-85
2021/06/22 11:55:14;;;;;;;11.90;8.55;;;19.10;63.40;;;;;;4960523;28;20113;-86
2021/06/22 11:57:44;;;;;;;11.95;8.50;;;19.10;63.50;;;;;;4961510;28;20023;-88
2021/06/22 12:00:14;;;;;;;13.00;9.98;;;19.30;63.70;;;;;;4977905;28;20105;-86
2021/06/22 12:02:49;;;;;;;12.55;8.57;;;19.50;63.10;;;;;;4960179;28;20038;-85
2021/06/22 12:05:17;;;;;;;9.73;6.72;;;19.50;63.30;;;;;;4977737;28;20038;-86
2021/06/22 12:07:53;;;;;;;9.75;7.35;;;19.50;62.80;;;;;;4944596;28;20027;-84
2021/06/22 12:10:21;;;;;;;9.57;8.48;;;19.30;63.00;;;;;;4960887;28;20033;-87
2021/06/22 12:12:49;;;;;;;9.77;7.85;;;19.20;63.10;;;;;;4977187;28;20019;-85
2021/06/22 12:15:34;;;;;;;12.68;7.82;;;19.00;63.60;;;;;;4960302;28;20038;-88
2021/06/22 12:18:00;;;;;;;12.32;9.95;;;19.10;63.80;;;;;;4960436;28;20112;-83
2021/06/22 12:20:34;;;;;;;12.90;9.25;;;19.20;63.20;;;;;;4944500;28;20034;-90
2021/06/22 12:23:28;;;;;;;11.18;7.90;;;19.30;63.60;;;;;;4960450;28;20038;-84
2021/06/22 12:25:54;;;;;;;13.23;9.30;;;19.50;63.10;;;;;;4975717;28;20039;-83
2021/06/22 12:28:22;;;;;;;10.95;7.85;;;19.60;63.00;;;;;;4960227;28;20510;-86
2021/06/22 12:30:50;;;;;;;10.90;7.63;;;19.50;62.60;;;;;;4960357;28;20035;-83
2021/06/22 12:33:18;;;;;;;14.55;8.55;;;19.20;63.10;;;;;;4959439;28;20126;-84
2021/06/22 12:35:47;;;;;;;9.70;8.32;;;19.00;63.40;;;;;;4959870;28;20030;-85
2021/06/22 12:38:15;;;;;;;14.95;9.50;;;19.00;64.00;;;;;;4959983;28;20134;-87
2021/06/22 12:40:43;;;;;;;12.90;8.77;;;19.00;63.40;;;;;;4959810;28;20018;-86
2021/06/22 12:43:10;;;;;;;11.90;8.70;;;19.00;63.90;;;;;;4959513;28;20026;-85
2021/06/22 12:45:35;;;;;;;12.07;9.65;;;19.10;63.80;;;;;;4976678;28;20517;-85
2021/06/22 12:48:01;;;;;;;11.07;9.77;;;18.90;63.90;;;;;;4943389;28;20035;-84
2021/06/22 12:50:36;;;;;;;14.27;11.50;;;18.90;64.20;;;;;;4944098;28;20027;-86
2021/06/22 12:53:03;;;;;;;13.35;10.00;;;18.90;64.00;;;;;;4976264;28;20027;-81
2021/06/22 12:55:36;;;;;;;11.35;8.50;;;18.90;63.10;;;;;;4943169;28;20027;-87
2021/06/22 12:58:03;;;;;;;12.70;9.50;;;18.90;63.40;;;;;;4959150;28;20469;-86
2021/06/22 13:00:38;;;;;;;10.18;8.77;;;19.10;63.00;;;;;;4959135;28;20556;-84